createdAt,value
2018-09-29T00:00:33.493Z,1024.82
2018-09-29T00:01:33.011Z,1024.84
2018-09-29T00:04:27.061Z,1024.86
2018-09-29T00:05:28.772Z,1024.88
2018-09-29T00:08:23.286Z,1024.92
2018-09-29T00:09:26.849Z,1024.91
2018-09-29T00:12:18.937Z,1024.91
2018-09-29T00:13:19.383Z,1024.90
2018-09-29T00:16:15.917Z,1024.88
2018-09-29T00:17:15.778Z,1024.87
2018-09-29T00:18:19.376Z,1024.87
2018-09-29T00:19:17.202Z,1024.86
2018-09-29T00:20:18.253Z,1024.90
2018-09-29T00:21:18.438Z,1024.87
2018-09-29T00:22:19.505Z,1024.89
2018-09-29T00:23:20.717Z,1024.88
2018-09-29T00:24:21.057Z,1024.88
2018-09-29T00:25:22.107Z,1024.88
2018-09-29T00:26:22.761Z,1024.90
2018-09-29T00:27:23.838Z,1024.90
2018-09-29T00:28:24.502Z,1024.86
2018-09-29T00:29:28.037Z,1024.86
2018-09-29T00:30:37.282Z,1024.85
2018-09-29T00:33:32.501Z,1024.94
2018-09-29T00:34:33.956Z,1024.93
2018-09-29T00:37:30.137Z,1024.89
2018-09-29T00:38:30.155Z,1024.89
2018-09-29T00:41:23.306Z,1024.90
2018-09-29T00:42:24.488Z,1024.85
2018-09-29T00:45:18.995Z,1024.95
2018-09-29T00:46:19.843Z,1024.91
2018-09-29T00:49:14.950Z,1024.86
2018-09-29T00:50:15.967Z,1024.91
2018-09-29T00:53:10.915Z,1024.86
2018-09-29T00:54:10.020Z,1024.82
2018-09-29T00:57:06.155Z,1024.85
2018-09-29T00:58:06.480Z,1024.89
2018-09-29T01:01:00.000Z,1024.93
2018-09-29T01:02:00.724Z,1024.87
2018-09-29T01:04:56.121Z,1024.89
2018-09-29T01:05:58.445Z,1024.87
2018-09-29T01:08:53.042Z,1024.80
2018-09-29T01:09:50.733Z,1024.79
2018-09-29T01:12:44.993Z,1024.76
2018-09-29T01:13:47.301Z,1024.73
2018-09-29T01:16:42.503Z,1024.78
2018-09-29T01:17:44.110Z,1024.80
2018-09-29T01:20:35.618Z,1024.76
2018-09-29T01:21:37.964Z,1024.74
2018-09-29T01:24:30.504Z,1024.73
2018-09-29T01:25:33.235Z,1024.72
2018-09-29T01:28:25.735Z,1024.74
2018-09-29T01:29:27.339Z,1024.83
2018-09-29T01:30:27.952Z,1024.85
2018-09-29T01:31:27.973Z,1024.87
2018-09-29T01:32:29.579Z,1024.82
2018-09-29T01:33:29.031Z,1024.84
2018-09-29T01:34:29.687Z,1024.84
2018-09-29T01:35:30.341Z,1024.85
2018-09-29T01:36:33.896Z,1024.90
2018-09-29T01:37:34.532Z,1024.89
2018-09-29T01:38:35.205Z,1024.87
2018-09-29T01:39:35.867Z,1024.89
2018-09-29T01:40:36.558Z,1024.88
2018-09-29T01:41:37.197Z,1024.86
2018-09-29T01:42:37.860Z,1024.89
2018-09-29T01:43:38.517Z,1024.89
2018-09-29T01:44:39.169Z,1024.95
2018-09-29T01:45:39.841Z,1024.92
2018-09-29T01:46:40.519Z,1024.94
2018-09-29T01:47:41.151Z,1024.94
2018-09-29T01:48:41.863Z,1024.94
2018-09-29T01:49:42.482Z,1024.97
2018-09-29T01:50:43.154Z,1024.97
2018-09-29T01:51:43.872Z,1024.92
2018-09-29T01:52:44.460Z,1024.90
2018-09-29T01:53:45.114Z,1024.85
2018-09-29T01:54:45.780Z,1024.87
2018-09-29T01:55:46.444Z,1024.89
2018-09-29T01:56:47.100Z,1024.85
2018-09-29T01:57:47.773Z,1024.86
2018-09-29T01:58:48.447Z,1024.90
2018-09-29T01:59:49.110Z,1024.89
2018-09-29T02:00:49.777Z,1024.89
2018-09-29T02:01:50.424Z,1024.88
2018-09-29T02:02:51.084Z,1024.87
2018-09-29T02:03:51.742Z,1024.87
2018-09-29T02:04:52.416Z,1024.90
2018-09-29T02:05:53.072Z,1024.89
2018-09-29T02:06:53.733Z,1024.91
2018-09-29T02:07:54.457Z,1024.88
2018-09-29T02:08:55.054Z,1024.89
2018-09-29T02:09:55.716Z,1024.90
2018-09-29T02:10:56.378Z,1024.89
2018-09-29T02:11:57.036Z,1024.91
2018-09-29T02:12:57.695Z,1024.85
2018-09-29T02:13:58.355Z,1024.84
2018-09-29T02:14:59.013Z,1024.85
2018-09-29T02:15:59.664Z,1024.85
2018-09-29T02:17:00.326Z,1024.85
2018-09-29T02:18:01.003Z,1024.89
2018-09-29T02:19:01.725Z,1024.86
2018-09-29T02:20:02.343Z,1024.87
2018-09-29T02:21:03.015Z,1024.86
2018-09-29T02:22:03.668Z,1024.90
2018-09-29T02:23:04.329Z,1024.92
2018-09-29T02:24:04.982Z,1024.94
2018-09-29T02:25:05.652Z,1024.91
2018-09-29T02:26:06.300Z,1024.92
2018-09-29T02:27:06.968Z,1024.86
2018-09-29T02:28:07.634Z,1024.84
2018-09-29T02:29:08.293Z,1024.83
2018-09-29T02:30:08.951Z,1024.84
2018-09-29T02:31:09.615Z,1024.82
2018-09-29T02:32:10.267Z,1024.78
2018-09-29T02:33:10.923Z,1024.78
2018-09-29T02:34:11.590Z,1024.79
2018-09-29T02:35:12.238Z,1024.78
2018-09-29T02:36:12.887Z,1024.81
2018-09-29T02:37:13.549Z,1024.80
2018-09-29T02:38:14.215Z,1024.80
2018-09-29T02:38:15.381Z,1024.81
2018-09-29T02:40:14.863Z,1024.85
2018-09-29T02:41:15.535Z,1024.82
2018-09-29T02:42:16.200Z,1024.83
2018-09-29T02:43:16.855Z,1024.84
2018-09-29T02:44:17.532Z,1024.81
2018-09-29T02:45:18.173Z,1024.81
2018-09-29T02:46:18.845Z,1024.79
2018-09-29T02:47:19.509Z,1024.77
2018-09-29T02:48:20.163Z,1024.75
2018-09-29T02:49:20.829Z,1024.79
2018-09-29T02:50:21.479Z,1024.80
2018-09-29T02:51:22.143Z,1024.79
2018-09-29T02:52:22.812Z,1024.76
2018-09-29T02:53:23.465Z,1024.76
2018-09-29T02:54:24.121Z,1024.73
2018-09-29T02:55:24.787Z,1024.76
2018-09-29T02:56:25.445Z,1024.74
2018-09-29T02:57:26.107Z,1024.80
2018-09-29T02:58:26.785Z,1024.75
2018-09-29T02:59:27.422Z,1024.75
2018-09-29T03:00:28.074Z,1024.77
2018-09-29T03:01:28.729Z,1024.71
2018-09-29T03:02:29.425Z,1024.72
2018-09-29T03:03:30.045Z,1024.73
2018-09-29T03:04:30.710Z,1024.70
2018-09-29T03:05:31.366Z,1024.69
2018-09-29T03:06:32.031Z,1024.69
2018-09-29T03:07:32.727Z,1024.71
2018-09-29T03:08:33.366Z,1024.68
2018-09-29T03:09:34.014Z,1024.68
2018-09-29T03:10:34.562Z,1024.70
2018-09-29T03:11:35.210Z,1024.65
2018-09-29T03:12:35.913Z,1024.69
2018-09-29T03:13:36.535Z,1024.66
2018-09-29T03:14:37.186Z,1024.67
2018-09-29T03:15:37.841Z,1024.66
2018-09-29T03:16:38.514Z,1024.69
2018-09-29T03:17:39.170Z,1024.67
2018-09-29T03:18:39.831Z,1024.69
2018-09-29T03:19:40.503Z,1024.67
2018-09-29T03:20:41.167Z,1024.68
2018-09-29T03:21:41.835Z,1024.65
2018-09-29T03:22:42.493Z,1024.67
2018-09-29T03:23:43.188Z,1024.64
2018-09-29T03:24:43.842Z,1024.67
2018-09-29T03:25:44.515Z,1024.69
2018-09-29T03:26:45.184Z,1024.62
2018-09-29T03:27:45.893Z,1024.63
2018-09-29T03:28:46.503Z,1024.61
2018-09-29T03:29:47.167Z,1024.64
2018-09-29T03:30:47.857Z,1024.63
2018-09-29T03:31:48.529Z,1024.61
2018-09-29T03:32:49.137Z,1024.60
2018-09-29T03:33:49.797Z,1024.58
2018-09-29T03:34:50.452Z,1024.54
2018-09-29T03:35:51.120Z,1024.55
2018-09-29T03:36:51.777Z,1024.55
2018-09-29T03:37:52.437Z,1024.57
2018-09-29T03:38:54.859Z,1024.56
2018-09-29T03:39:55.523Z,1024.55
2018-09-29T03:40:56.179Z,1024.56
2018-09-29T03:41:56.830Z,1024.54
2018-09-29T03:42:57.488Z,1024.54
2018-09-29T03:43:58.192Z,1024.55
2018-09-29T03:44:58.822Z,1024.54
2018-09-29T03:45:59.487Z,1024.55
2018-09-29T03:47:00.147Z,1024.55
2018-09-29T03:48:00.801Z,1024.56
2018-09-29T03:49:01.458Z,1024.56
2018-09-29T03:49:02.620Z,1024.56
2018-09-29T03:51:02.122Z,1024.60
2018-09-29T03:52:02.814Z,1024.57
2018-09-29T03:53:03.449Z,1024.55
2018-09-29T03:54:04.115Z,1024.55
2018-09-29T03:55:04.807Z,1024.54
2018-09-29T03:56:05.556Z,1024.54
2018-09-29T03:57:06.180Z,1024.54
2018-09-29T03:58:06.885Z,1024.59
2018-09-29T03:59:07.495Z,1024.51
2018-09-29T04:00:08.149Z,1024.54
2018-09-29T04:01:08.813Z,1024.54
2018-09-29T04:02:09.478Z,1024.53
2018-09-29T04:03:10.137Z,1024.51
2018-09-29T04:04:10.803Z,1024.50
2018-09-29T04:05:11.464Z,1024.45
2018-09-29T04:06:12.130Z,1024.47
2018-09-29T04:07:12.801Z,1024.45
2018-09-29T04:08:13.450Z,1024.43
2018-09-29T04:09:14.112Z,1024.49
2018-09-29T04:10:14.778Z,1024.51
2018-09-29T04:11:15.428Z,1024.48
2018-09-29T04:12:16.095Z,1024.50
2018-09-29T04:13:16.754Z,1024.50
2018-09-29T04:14:17.414Z,1024.51
2018-09-29T04:15:18.120Z,1024.52
2018-09-29T04:16:18.740Z,1024.52
2018-09-29T04:17:19.398Z,1024.52
2018-09-29T04:18:20.063Z,1024.52
2018-09-29T04:19:20.726Z,1024.54
2018-09-29T04:20:21.430Z,1024.58
2018-09-29T04:21:22.049Z,1024.58
2018-09-29T04:22:22.701Z,1024.62
2018-09-29T04:23:23.366Z,1024.62
2018-09-29T04:24:24.025Z,1024.64
2018-09-29T04:25:24.777Z,1024.64
2018-09-29T04:26:25.347Z,1024.66
2018-09-29T04:27:26.000Z,1024.63
2018-09-29T04:28:26.662Z,1024.66
2018-09-29T04:29:27.314Z,1024.68
2018-09-29T04:30:28.273Z,1024.68
2018-09-29T04:31:28.936Z,1024.70
2018-09-29T04:32:29.589Z,1024.74
2018-09-29T04:33:30.248Z,1024.68
2018-09-29T04:34:30.908Z,1024.67
2018-09-29T04:35:31.560Z,1024.67
2018-09-29T04:36:32.226Z,1024.63
2018-09-29T04:37:32.891Z,1024.63
2018-09-29T04:38:33.546Z,1024.66
2018-09-29T04:39:34.202Z,1024.70
2018-09-29T04:40:34.870Z,1024.66
2018-09-29T04:41:35.526Z,1024.73
2018-09-29T04:42:36.187Z,1024.75
2018-09-29T04:43:36.846Z,1024.71
2018-09-29T04:44:37.557Z,1024.78
2018-09-29T04:45:38.173Z,1024.75
2018-09-29T04:46:38.877Z,1024.73
2018-09-29T04:47:39.495Z,1024.68
2018-09-29T04:48:40.170Z,1024.69
2018-09-29T04:49:40.830Z,1024.70
2018-09-29T04:50:41.490Z,1024.72
2018-09-29T04:51:42.160Z,1024.75
2018-09-29T04:52:42.822Z,1024.73
2018-09-29T04:53:43.479Z,1024.77
2018-09-29T04:54:44.140Z,1024.76
2018-09-29T04:55:44.805Z,1024.83
2018-09-29T04:56:45.471Z,1024.83
2018-09-29T04:57:46.140Z,1024.83
2018-09-29T04:58:46.806Z,1024.82
2018-09-29T04:59:47.481Z,1024.82
2018-09-29T05:00:48.146Z,1024.83
2018-09-29T05:00:49.306Z,1024.79
2018-09-29T05:02:48.807Z,1024.77
2018-09-29T05:03:49.460Z,1024.75
2018-09-29T05:04:50.128Z,1024.77
2018-09-29T05:05:50.775Z,1024.77
2018-09-29T05:06:51.444Z,1024.79
2018-09-29T05:07:52.103Z,1024.77
2018-09-29T05:08:52.772Z,1024.77
2018-09-29T05:09:53.431Z,1024.81
2018-09-29T05:10:54.088Z,1024.75
2018-09-29T05:11:54.757Z,1024.75
2018-09-29T05:12:55.406Z,1024.81
2018-09-29T05:13:56.111Z,1024.86
2018-09-29T05:14:56.782Z,1024.83
2018-09-29T05:15:59.374Z,1024.81
2018-09-29T05:17:00.037Z,1024.80
2018-09-29T05:18:00.689Z,1024.80
2018-09-29T05:19:01.351Z,1024.80
2018-09-29T05:20:02.023Z,1024.79
2018-09-29T05:21:02.680Z,1024.79
2018-09-29T05:22:03.350Z,1024.76
2018-09-29T05:23:04.023Z,1024.72
2018-09-29T05:24:04.671Z,1024.70
2018-09-29T05:25:05.374Z,1024.70
2018-09-29T05:26:06.102Z,1024.68
2018-09-29T05:27:06.687Z,1024.72
2018-09-29T05:28:07.293Z,1024.72
2018-09-29T05:29:07.951Z,1024.72
2018-09-29T05:30:08.613Z,1024.67
2018-09-29T05:31:09.281Z,1024.73
2018-09-29T05:32:09.937Z,1024.75
2018-09-29T05:33:10.666Z,1024.69
2018-09-29T05:34:11.266Z,1024.71
2018-09-29T05:35:14.873Z,1024.73
2018-09-29T05:36:15.541Z,1024.71
2018-09-29T05:37:16.157Z,1024.72
2018-09-29T05:38:16.865Z,1024.71
2018-09-29T05:39:17.472Z,1024.71
2018-09-29T05:40:18.135Z,1024.71
2018-09-29T05:41:18.792Z,1024.68
2018-09-29T05:42:19.456Z,1024.71
2018-09-29T05:43:20.116Z,1024.69
2018-09-29T05:44:20.770Z,1024.72
2018-09-29T05:45:21.434Z,1024.73
2018-09-29T05:46:22.085Z,1024.76
2018-09-29T05:47:22.784Z,1024.76
2018-09-29T05:48:23.526Z,1024.78
2018-09-29T05:49:24.055Z,1024.79
2018-09-29T05:50:24.720Z,1024.79
2018-09-29T05:51:25.417Z,1024.76
2018-09-29T05:52:26.038Z,1024.79
2018-09-29T05:53:26.767Z,1024.80
2018-09-29T05:54:27.362Z,1024.78
2018-09-29T05:55:28.025Z,1024.82
2018-09-29T05:56:28.682Z,1024.88
2018-09-29T05:57:30.861Z,1024.88
2018-09-29T05:58:31.522Z,1024.94
2018-09-29T05:59:32.177Z,1024.94
2018-09-29T06:00:32.938Z,1024.94
2018-09-29T06:01:33.514Z,1025.00
2018-09-29T06:02:34.178Z,1024.97
2018-09-29T06:03:34.974Z,1025.00
2018-09-29T06:04:35.527Z,1024.99
2018-09-29T06:05:36.244Z,1025.00
2018-09-29T06:06:36.818Z,1025.02
2018-09-29T06:07:37.729Z,1025.04
2018-09-29T06:08:38.340Z,1025.06
2018-09-29T06:09:38.990Z,1025.03
2018-09-29T06:10:39.700Z,1025.01
2018-09-29T06:11:40.393Z,1025.00
2018-09-29T06:12:49.125Z,1025.01
2018-09-29T07:40:57.558Z,1025.19
2018-09-29T07:41:56.060Z,1025.17
2018-09-29T07:44:51.851Z,1025.17
2018-09-29T07:45:52.103Z,1025.14
2018-09-29T07:46:50.761Z,1025.14
2018-09-29T07:47:50.904Z,1025.16
2018-09-29T07:48:51.839Z,1025.17
2018-09-29T07:49:52.352Z,1025.18
2018-09-29T07:50:52.827Z,1025.12
2018-09-29T07:51:53.326Z,1025.14
2018-09-29T07:52:54.203Z,1025.11
2018-09-29T07:53:54.752Z,1025.12
2018-09-29T07:54:55.278Z,1025.04
2018-09-29T07:55:56.094Z,1025.08
2018-09-29T07:56:56.863Z,1025.10
2018-09-29T07:57:57.409Z,1025.12
2018-09-29T07:58:58.155Z,1025.12
2018-09-29T07:59:58.965Z,1025.16
2018-09-29T08:00:59.601Z,1025.20
2018-09-29T08:02:00.469Z,1025.19
2018-09-29T08:03:01.286Z,1025.19
2018-09-29T08:04:01.803Z,1025.18
2018-09-29T08:05:02.467Z,1025.21
2018-09-29T08:06:03.128Z,1025.20
2018-09-29T08:07:03.792Z,1025.25
2018-09-29T08:08:04.474Z,1025.26
2018-09-29T08:09:05.114Z,1025.19
2018-09-29T08:10:05.827Z,1025.21
2018-09-29T08:11:06.454Z,1025.16
2018-09-29T08:12:07.131Z,1025.17
2018-09-29T08:13:07.784Z,1025.17
2018-09-29T08:14:08.519Z,1025.21
2018-09-29T08:15:09.113Z,1025.21
2018-09-29T08:16:09.783Z,1025.22
2018-09-29T08:17:10.455Z,1025.20
2018-09-29T08:18:11.125Z,1025.18
2018-09-29T08:19:11.810Z,1025.17
2018-09-29T08:20:12.447Z,1025.17
2018-09-29T08:21:13.139Z,1025.20
2018-09-29T08:22:13.786Z,1025.18
2018-09-29T08:23:14.453Z,1025.20
2018-09-29T08:24:15.173Z,1025.18
2018-09-29T08:25:15.847Z,1025.17
2018-09-29T08:26:16.488Z,1025.08
2018-09-29T08:27:17.177Z,1025.10
2018-09-29T08:28:17.813Z,1025.09
2018-09-29T08:29:18.509Z,1025.07
2018-09-29T08:30:19.162Z,1025.08
2018-09-29T08:31:19.825Z,1025.07
2018-09-29T08:32:20.527Z,1025.07
2018-09-29T08:33:21.147Z,1025.09
2018-09-29T08:34:21.863Z,1025.11
2018-09-29T08:35:22.479Z,1025.13
2018-09-29T08:36:23.167Z,1025.16
2018-09-29T08:37:23.818Z,1025.16
2018-09-29T08:38:24.478Z,1025.18
2018-09-29T08:39:25.165Z,1025.19
2018-09-29T08:40:25.831Z,1025.19
2018-09-29T08:41:26.500Z,1025.15
2018-09-29T08:42:27.223Z,1025.14
2018-09-29T08:43:27.836Z,1025.11
2018-09-29T08:44:28.514Z,1025.15
2018-09-29T08:45:29.247Z,1025.13
2018-09-29T08:46:29.841Z,1025.14
2018-09-29T08:47:30.504Z,1025.18
2018-09-29T08:48:31.176Z,1025.08
2018-09-29T08:49:31.948Z,1025.10
2018-09-29T08:50:32.608Z,1025.06
2018-09-29T08:51:33.272Z,1025.07
2018-09-29T08:52:33.942Z,1025.02
2018-09-29T08:53:34.636Z,1025.03
2018-09-29T08:54:35.273Z,1025.09
2018-09-29T08:54:36.431Z,1025.06
2018-09-29T08:56:35.951Z,1025.09
2018-09-29T08:57:36.619Z,1025.10
2018-09-29T08:58:37.356Z,1025.07
2018-09-29T08:59:37.934Z,1025.07
2018-09-29T09:00:38.611Z,1025.04
2018-09-29T09:01:39.281Z,1025.01
2018-09-29T09:02:39.951Z,1025.01
2018-09-29T09:03:40.617Z,1025.02
2018-09-29T09:04:41.318Z,1025.01
2018-09-29T09:05:41.960Z,1025.02
2018-09-29T09:06:42.622Z,1025.01
2018-09-29T09:07:43.368Z,1025.02
2018-09-29T09:08:43.968Z,1025.02
2018-09-29T09:09:44.634Z,1024.97
2018-09-29T09:10:45.319Z,1024.95
2018-09-29T09:11:45.983Z,1024.96
2018-09-29T09:12:46.694Z,1024.95
2018-09-29T09:13:47.307Z,1024.96
2018-09-29T09:14:55.623Z,1024.96
2018-09-29T09:17:49.944Z,1024.93
2018-09-29T09:18:51.017Z,1024.89
2018-09-29T09:21:44.699Z,1024.85
2018-09-29T09:22:45.225Z,1024.87
2018-09-29T09:25:39.615Z,1024.86
2018-09-29T09:26:41.872Z,1024.88
2018-09-29T09:29:35.437Z,1024.84
2018-09-29T09:30:36.034Z,1024.81
2018-09-29T09:33:31.533Z,1024.77
2018-09-29T09:34:30.327Z,1024.71
2018-09-29T09:35:32.572Z,1024.67
2018-09-29T09:36:33.288Z,1024.67
2018-09-29T09:37:33.940Z,1024.73
2018-09-29T09:38:34.591Z,1024.71
2018-09-29T09:39:35.276Z,1024.68
2018-09-29T09:40:35.927Z,1024.68
2018-09-29T09:41:36.610Z,1024.68
2018-09-29T09:42:37.281Z,1024.63
2018-09-29T09:43:37.992Z,1024.63
2018-09-29T09:44:38.672Z,1024.66
2018-09-29T09:45:39.307Z,1024.69
2018-09-29T09:46:39.958Z,1024.72
2018-09-29T09:47:40.635Z,1024.71
2018-09-29T09:48:41.303Z,1024.66
2018-09-29T09:49:42.016Z,1024.65
2018-09-29T09:50:42.657Z,1024.68
2018-09-29T09:51:43.330Z,1024.67
2018-09-29T09:52:45.765Z,1024.64
2018-09-29T09:53:46.424Z,1024.62
2018-09-29T09:54:47.090Z,1024.61
2018-09-29T09:55:47.788Z,1024.65
2018-09-29T09:56:48.436Z,1024.65
2018-09-29T09:57:49.100Z,1024.57
2018-09-29T09:58:49.769Z,1024.58
2018-09-29T09:59:50.436Z,1024.55
2018-09-29T10:00:51.099Z,1024.58
2018-09-29T10:01:51.768Z,1024.56
2018-09-29T10:02:52.458Z,1024.57
2018-09-29T10:03:53.203Z,1024.62
2018-09-29T10:04:53.990Z,1024.60
2018-09-29T10:05:54.516Z,1024.57
2018-09-29T10:06:55.230Z,1024.58
2018-09-29T10:07:55.828Z,1024.56
2018-09-29T10:08:56.505Z,1024.54
2018-09-29T10:09:57.176Z,1024.55
2018-09-29T10:10:57.850Z,1024.49
2018-09-29T10:11:58.508Z,1024.48
2018-09-29T10:12:59.182Z,1024.49
2018-09-29T10:14:00.062Z,1024.43
2018-09-29T10:15:00.686Z,1024.39
2018-09-29T10:16:01.353Z,1024.44
2018-09-29T10:17:02.025Z,1024.41
2018-09-29T10:18:02.698Z,1024.39
2018-09-29T10:19:03.492Z,1024.38
2018-09-29T10:20:04.128Z,1024.36
2018-09-29T10:21:04.778Z,1024.36
2018-09-29T10:22:05.381Z,1024.37
2018-09-29T10:23:06.030Z,1024.38
2018-09-29T10:24:06.767Z,1024.32
2018-09-29T10:25:07.417Z,1024.25
2018-09-29T10:26:08.089Z,1024.26
2018-09-29T10:27:08.729Z,1024.22
2018-09-29T10:28:09.406Z,1024.25
2018-09-29T10:29:10.075Z,1024.26
2018-09-29T10:30:10.787Z,1024.21
2018-09-29T10:31:11.440Z,1024.22
2018-09-29T10:32:12.086Z,1024.19
2018-09-29T10:33:12.752Z,1024.18
2018-09-29T10:34:13.492Z,1024.15
2018-09-29T10:35:14.119Z,1024.17
2018-09-29T10:36:14.781Z,1024.14
2018-09-29T10:37:15.440Z,1024.07
2018-09-29T10:38:16.111Z,1024.09
2018-09-29T10:39:16.780Z,1024.05
2018-09-29T10:40:17.442Z,1024.06
2018-09-29T10:41:18.107Z,1024.05
2018-09-29T10:42:18.789Z,1024.05
2018-09-29T10:43:19.455Z,1024.01
2018-09-29T10:43:20.612Z,1024.01
2018-09-29T10:45:20.149Z,1024.01
2018-09-29T10:46:20.824Z,1023.98
2018-09-29T10:47:21.493Z,1024.03
2018-09-29T10:48:22.165Z,1023.99
2018-09-29T10:49:22.929Z,1023.97
2018-09-29T10:50:28.780Z,1023.93
2018-09-29T10:51:24.878Z,1023.92
2018-09-29T10:52:25.469Z,1023.89
2018-09-29T10:53:26.344Z,1023.92
2018-09-29T10:54:27.097Z,1023.91
2018-09-29T10:55:27.741Z,1023.93
2018-09-29T10:56:28.412Z,1023.90
2018-09-29T10:57:29.099Z,1023.89
2018-09-29T10:58:29.736Z,1023.83
2018-09-29T10:59:30.420Z,1023.81
2018-09-29T11:00:31.107Z,1023.82
2018-09-29T11:01:31.761Z,1023.80
2018-09-29T11:02:32.470Z,1023.80
2018-09-29T11:03:33.098Z,1023.85
2018-09-29T11:04:33.770Z,1023.81
2018-09-29T11:05:34.447Z,1023.85
2018-09-29T11:06:35.113Z,1023.81
2018-09-29T11:07:35.808Z,1023.84
2018-09-29T11:08:36.456Z,1023.82
2018-09-29T11:09:37.159Z,1023.77
2018-09-29T11:10:37.857Z,1023.77
2018-09-29T11:11:38.460Z,1023.75
2018-09-29T11:12:39.220Z,1023.73
2018-09-29T11:13:39.891Z,1023.72
2018-09-29T11:14:40.567Z,1023.67
2018-09-29T11:15:41.247Z,1023.63
2018-09-29T11:16:41.918Z,1023.64
2018-09-29T11:17:42.587Z,1023.62
2018-09-29T11:18:43.268Z,1023.64
2018-09-29T11:19:43.946Z,1023.58
2018-09-29T11:20:44.620Z,1023.53
2018-09-29T11:21:45.295Z,1023.52
2018-09-29T11:22:45.969Z,1023.50
2018-09-29T11:23:46.645Z,1023.44
2018-09-29T11:24:47.348Z,1023.44
2018-09-29T11:25:48.056Z,1023.42
2018-09-29T11:26:48.720Z,1023.41
2018-09-29T11:27:49.467Z,1023.35
2018-09-29T11:28:50.010Z,1023.41
2018-09-29T11:29:50.695Z,1023.39
2018-09-29T11:30:51.374Z,1023.34
2018-09-29T11:31:52.057Z,1023.34
2018-09-29T11:32:52.742Z,1023.32
2018-09-29T11:33:53.360Z,1023.30
2018-09-29T11:34:54.036Z,1023.26
2018-09-29T11:35:54.760Z,1023.22
2018-09-29T11:36:55.392Z,1023.19
2018-09-29T11:37:56.121Z,1023.15
2018-09-29T11:38:56.736Z,1023.13
2018-09-29T11:39:57.446Z,1023.13
2018-09-29T11:40:58.121Z,1023.11
2018-09-29T11:41:58.982Z,1023.05
2018-09-29T11:42:59.858Z,1023.06
2018-09-29T11:44:00.476Z,1023.04
2018-09-29T11:45:00.899Z,1023.06
2018-09-29T11:46:01.646Z,1023.04
2018-09-29T11:47:02.258Z,1023.00
2018-09-29T11:48:03.012Z,1023.01
2018-09-29T11:49:03.710Z,1022.97
2018-09-29T11:50:04.302Z,1022.98
2018-09-29T11:51:04.943Z,1022.99
2018-09-29T11:52:05.708Z,1022.96
2018-09-29T11:53:06.309Z,1022.92
2018-09-29T11:54:06.973Z,1022.96
2018-09-29T11:54:08.152Z,1022.92
2018-09-29T11:56:07.743Z,1022.93
2018-09-29T11:57:08.435Z,1022.92
2018-09-29T11:58:09.140Z,1022.91
2018-09-29T11:59:09.887Z,1022.92
2018-09-29T12:00:10.473Z,1022.87
2018-09-29T12:01:12.103Z,1022.86
2018-09-29T12:02:12.860Z,1022.87
2018-09-29T12:03:13.424Z,1022.86
2018-09-29T12:04:14.193Z,1022.86
2018-09-29T12:05:14.784Z,1022.83
2018-09-29T12:06:15.769Z,1022.79
2018-09-29T12:07:16.172Z,1022.75
2018-09-29T12:08:16.878Z,1022.70
2018-09-29T12:09:17.453Z,1022.76
2018-09-29T12:10:18.153Z,1022.72
2018-09-29T12:11:18.804Z,1022.63
2018-09-29T12:12:19.508Z,1022.66
2018-09-29T12:13:20.133Z,1022.63
2018-09-29T12:14:20.870Z,1022.62
2018-09-29T12:15:21.551Z,1022.63
2018-09-29T12:16:22.136Z,1022.63
2018-09-29T12:17:22.871Z,1022.59
2018-09-29T12:18:23.552Z,1022.60
2018-09-29T12:19:24.322Z,1022.54
2018-09-29T12:20:24.999Z,1022.54
2018-09-29T12:21:25.736Z,1022.50
2018-09-29T12:22:26.358Z,1022.55
2018-09-29T12:23:27.139Z,1022.53
2018-09-29T12:24:27.757Z,1022.54
2018-09-29T12:25:28.377Z,1022.47
2018-09-29T12:26:29.019Z,1022.46
2018-09-29T12:27:29.683Z,1022.46
2018-09-29T12:28:30.329Z,1022.40
2018-09-29T12:29:31.125Z,1022.40
2018-09-29T12:30:31.738Z,1022.38
2018-09-29T12:31:32.406Z,1022.39
2018-09-29T12:32:33.033Z,1022.35
2018-09-29T12:33:33.786Z,1022.35
2018-09-29T12:34:34.360Z,1022.42
2018-09-29T12:35:35.099Z,1022.42
2018-09-29T12:36:35.749Z,1022.39
2018-09-29T12:37:36.447Z,1022.39
2018-09-29T12:38:37.055Z,1022.40
2018-09-29T12:39:37.786Z,1022.35
2018-09-29T12:40:38.406Z,1022.37
2018-09-29T12:41:39.065Z,1022.34
2018-09-29T12:42:39.806Z,1022.29
2018-09-29T12:43:40.429Z,1022.33
2018-09-29T12:44:41.166Z,1022.23
2018-09-29T12:45:41.766Z,1022.20
2018-09-29T12:46:42.446Z,1022.22
2018-09-29T12:47:43.239Z,1022.23
2018-09-29T12:48:43.845Z,1022.17
2018-09-29T12:49:44.586Z,1022.14
2018-09-29T12:50:45.308Z,1022.18
2018-09-29T12:51:45.903Z,1022.16
2018-09-29T12:52:46.732Z,1022.11
2018-09-29T12:53:47.537Z,1022.07
2018-09-29T12:54:47.985Z,1022.05
2018-09-29T12:58:54.174Z,1022.00
2018-09-29T13:02:49.712Z,1021.96
2018-09-29T13:03:49.095Z,1021.93
2018-09-29T13:06:43.503Z,1021.85
2018-09-29T13:07:44.193Z,1021.86
2018-09-29T13:10:38.979Z,1021.84
2018-09-29T13:11:39.933Z,1021.77
2018-09-29T13:14:33.463Z,1021.74
2018-09-29T13:15:34.785Z,1021.67
2018-09-29T13:18:29.941Z,1021.64
2018-09-29T13:19:29.961Z,1021.60
2018-09-29T13:22:23.702Z,1021.52
2018-09-29T13:23:24.451Z,1021.55
2018-09-29T13:26:18.734Z,1021.49
2018-09-29T13:30:14.220Z,1021.43
2018-09-29T13:34:09.188Z,1021.40
2018-09-29T13:35:09.239Z,1021.37
2018-09-29T13:38:03.947Z,1021.31
2018-09-29T13:39:04.386Z,1021.31
2018-09-29T13:41:58.518Z,1021.33
2018-09-29T13:45:54.500Z,1021.32
2018-09-29T13:46:53.743Z,1021.23
2018-09-29T13:47:54.811Z,1021.22
2018-09-29T13:48:59.258Z,1021.20
2018-09-29T13:49:59.805Z,1021.16
2018-09-29T13:50:59.752Z,1021.16
2018-09-29T13:52:03.939Z,1021.14
2018-09-29T13:53:02.462Z,1021.10
2018-09-29T13:54:03.763Z,1021.08
2018-09-29T13:55:03.867Z,1021.06
2018-09-29T13:56:04.323Z,1021.07
2018-09-29T13:57:04.091Z,1021.02
2018-09-29T13:58:02.663Z,1021.02
2018-09-29T13:59:03.449Z,1021.00
2018-09-29T14:00:03.820Z,1020.92
2018-09-29T14:01:04.484Z,1021.01
2018-09-29T14:02:07.120Z,1020.99
2018-09-29T14:03:07.708Z,1021.01
2018-09-29T14:04:08.390Z,1020.98
2018-09-29T14:05:09.063Z,1020.95
2018-09-29T14:06:09.743Z,1020.91
2018-09-29T14:07:10.416Z,1020.94
2018-09-29T14:08:11.184Z,1020.93
2018-09-29T14:09:11.753Z,1020.92
2018-09-29T14:10:12.446Z,1020.90
2018-09-29T14:11:13.164Z,1020.94
2018-09-29T14:12:13.767Z,1020.91
2018-09-29T14:13:14.427Z,1020.85
2018-09-29T14:14:15.107Z,1020.83
2018-09-29T14:15:15.782Z,1020.81
2018-09-29T14:16:16.469Z,1020.77
2018-09-29T14:17:17.112Z,1020.80
2018-09-29T14:18:17.796Z,1020.79
2018-09-29T14:19:18.490Z,1020.75
2018-09-29T14:20:19.198Z,1020.74
2018-09-29T14:21:19.805Z,1020.72
2018-09-29T14:22:20.492Z,1020.68
2018-09-29T14:23:21.170Z,1020.60
2018-09-29T14:24:21.835Z,1020.59
2018-09-29T14:25:22.505Z,1020.56
2018-09-29T14:26:23.201Z,1020.54
2018-09-29T14:27:23.870Z,1020.54
2018-09-29T14:28:24.522Z,1020.51
2018-09-29T14:29:25.190Z,1020.56
2018-09-29T14:30:25.879Z,1020.56
2018-09-29T14:31:26.537Z,1020.49
2018-09-29T14:32:27.321Z,1020.53
2018-09-29T14:33:27.873Z,1020.54
2018-09-29T14:34:28.572Z,1020.52
2018-09-29T14:35:29.230Z,1020.50
2018-09-29T14:36:29.928Z,1020.48
2018-09-29T14:37:30.569Z,1020.48
2018-09-29T14:38:31.259Z,1020.48
2018-09-29T14:39:31.907Z,1020.38
2018-09-29T14:40:32.579Z,1020.47
2018-09-29T14:41:33.249Z,1020.39
2018-09-29T14:42:33.919Z,1020.40
2018-09-29T14:43:34.649Z,1020.41
2018-09-29T14:44:35.268Z,1020.37
2018-09-29T14:45:38.539Z,1020.35
2018-09-29T14:46:39.256Z,1020.34
2018-09-29T14:47:39.920Z,1020.29
2018-09-29T14:48:40.599Z,1020.29
2018-09-29T14:49:41.267Z,1020.30
2018-09-29T14:50:42.003Z,1020.28
2018-09-29T14:51:42.611Z,1020.25
2018-09-29T14:52:43.289Z,1020.27
2018-09-29T14:53:44.006Z,1020.21
2018-09-29T14:54:44.656Z,1020.21
2018-09-29T14:54:45.814Z,1020.20
2018-09-29T14:56:45.371Z,1020.13
2018-09-29T14:57:46.012Z,1020.14
2018-09-29T14:58:46.641Z,1020.15